Time;durP1;ratioP1;P1;durP2;ratioP2;P2;SDS_P1;SDS_P2;PMS_P1;PMS_P2;Temp;Humidity;BMP_temperature;BMP_pressure;BME280_temperature;BME280_humidity;BME280_pressure;Samples;Min_cycle;Max_cycle;Signal;HPM_P1;HPM_P2
2022/07/06 00:00:13;;;;;;;2.60;0.90;;;;;;;27.91;39.01;99905.41;5076229;28;20029;-83
2022/07/06 00:02:59;;;;;;;4.82;1.00;;;;;;;27.91;39.02;99901.84;5076430;28;20029;-84
2022/07/06 00:05:40;;;;;;;2.28;0.80;;;;;;;27.90;39.42;99906.38;5057983;28;20046;-86
2022/07/06 00:08:37;;;;;;;2.55;1.00;;;;;;;27.87;39.20;99902.13;5077112;28;20032;-84
2022/07/06 00:11:33;;;;;;;2.25;1.00;;;;;;;27.85;39.27;99898.69;5068689;28;20085;-83
2022/07/06 00:14:21;;;;;;;3.45;0.90;;;;;;;27.82;39.10;99903.47;5081676;28;20054;-84
2022/07/06 00:17:06;;;;;;;2.80;1.10;;;;;;;27.80;39.10;99914.31;5078282;28;20042;-84
2022/07/06 00:19:45;;;;;;;3.10;0.90;;;;;;;27.78;39.24;99915.44;5078294;28;20425;-84
2022/07/06 00:22:29;;;;;;;3.00;1.08;;;;;;;27.75;39.25;99919.25;5078756;28;20028;-83
2022/07/06 00:25:09;;;;;;;2.88;0.90;;;;;;;27.73;39.32;99915.81;5080268;28;20036;-84
2022/07/06 00:27:57;;;;;;;2.25;0.80;;;;;;;27.71;39.14;99912.41;5083954;28;20032;-84
2022/07/06 00:30:28;;;;;;;3.47;1.10;;;;;;;27.68;39.30;99912.66;5102277;28;20034;-85
2022/07/06 00:33:12;;;;;;;2.55;0.95;;;;;;;27.67;39.15;99908.28;5083097;28;20024;-85
2022/07/06 00:35:43;;;;;;;2.97;0.80;;;;;;;27.63;39.30;99909.50;5078415;28;20531;-85
2022/07/06 00:38:37;;;;;;;2.45;1.00;;;;;;;27.63;39.20;99909.50;5081342;28;20458;-84
2022/07/06 00:41:28;;;;;;;1.27;0.80;;;;;;;27.59;39.06;99907.09;5098711;28;20074;-84
2022/07/06 00:44:26;;;;;;;3.45;0.90;;;;;;;27.57;39.00;99906.34;5081699;28;20377;-85
2022/07/06 00:47:08;;;;;;;3.00;0.98;;;;;;;27.55;39.32;99902.91;5078360;28;20435;-84
2022/07/06 00:50:23;;;;;;;2.95;0.93;;;;;;;27.53;39.38;99894.16;5077489;28;20115;-85
2022/07/06 00:53:24;;;;;;;3.25;0.80;;;;;;;27.52;39.12;99894.28;5077638;28;20084;-84
2022/07/06 00:55:52;;;;;;;3.17;0.80;;;;;;;27.49;38.99;99892.72;5077403;28;20028;-83
2022/07/06 00:58:30;;;;;;;2.33;0.93;;;;;;;27.47;39.00;99884.78;5111421;28;20466;-84
2022/07/06 01:01:09;;;;;;;1.38;0.90;;;;;;;27.46;39.37;99890.28;5077648;28;20355;-84
2022/07/06 01:03:48;;;;;;;1.77;0.90;;;;;;;27.42;39.35;99887.03;5077631;28;20056;-84
2022/07/06 01:06:30;;;;;;;2.45;0.90;;;;;;;27.41;39.13;99879.09;5077793;28;20028;-84
2022/07/06 01:09:14;;;;;;;2.55;1.00;;;;;;;27.39;39.58;99886.38;5079736;28;20051;-84
2022/07/06 01:11:55;;;;;;;3.08;1.00;;;;;;;27.38;39.34;99884.69;5114657;28;20112;-84
2022/07/06 01:14:40;;;;;;;2.67;1.00;;;;;;;27.36;39.42;99875.94;5085888;28;20100;-84
2022/07/06 01:17:30;;;;;;;2.15;0.80;;;;;;;27.33;39.23;99880.59;5084470;28;20028;-84
2022/07/06 01:20:24;;;;;;;3.03;0.98;;;;;;;27.31;39.06;99874.47;5099463;28;20372;-85
2022/07/06 01:23:05;;;;;;;3.83;0.90;;;;;;;27.29;39.38;99876.44;5081203;28;20066;-86
2022/07/06 01:25:48;;;;;;;5.03;1.33;;;;;;;27.26;39.26;99865.97;5101022;28;20024;-84
2022/07/06 01:28:23;;;;;;;2.97;1.17;;;;;;;27.25;39.25;99869.63;5081088;28;20062;-85
2022/07/06 01:31:03;;;;;;;4.33;1.33;;;;;;;27.24;39.34;99856.34;5092493;28;20052;-86
2022/07/06 01:33:34;;;;;;;2.50;0.90;;;;;;;27.23;39.11;99863.56;5098944;28;20464;-86
2022/07/06 01:36:19;;;;;;;2.63;0.95;;;;;;;27.20;39.10;99859.28;5085161;28;20036;-84
2022/07/06 01:38:51;;;;;;;1.85;0.85;;;;;;;27.19;39.32;99862.09;5081428;28;20036;-85
2022/07/06 01:41:20;;;;;;;1.67;0.80;;;;;;;27.17;39.45;99856.00;5084006;28;20119;-86
2022/07/06 01:43:50;;;;;;;1.80;0.80;;;;;;;27.15;39.14;99852.59;5082469;28;20035;-85
2022/07/06 01:46:28;;;;;;;2.03;0.80;;;;;;;27.14;39.27;99856.25;5087311;28;20034;-86
2022/07/06 01:48:56;;;;;;;3.10;0.82;;;;;;;27.12;39.28;99858.22;5087136;28;20028;-85
2022/07/06 01:51:31;;;;;;;2.25;0.80;;;;;;;27.12;39.29;99852.84;5081452;28;20028;-87
2022/07/06 01:54:00;;;;;;;2.27;1.00;;;;;;;27.08;39.07;99852.25;5082265;28;20505;-87
2022/07/06 01:56:39;;;;;;;3.35;0.88;;;;;;;27.07;39.24;99850.56;5085874;28;20098;-87
2022/07/06 01:59:18;;;;;;;3.75;1.05;;;;;;;27.06;39.21;99848.84;5088121;28;20059;-87
2022/07/06 02:01:56;;;;;;;2.30;0.95;;;;;;;27.02;39.52;99856.28;5084310;28;20036;-85
2022/07/06 02:05:03;;;;;;;1.90;0.80;;;;;;;27.03;39.22;99855.28;5079994;28;20035;-86
2022/07/06 02:08:07;;;;;;;2.58;0.75;;;;;;;26.99;39.33;99848.50;5080035;28;20051;-85
2022/07/06 02:10:40;;;;;;;2.50;1.02;;;;;;;26.98;39.25;99845.94;5097963;28;20028;-85
2022/07/06 02:13:11;;;;;;;1.55;0.70;;;;;;;26.97;39.31;99838.88;5097819;28;20035;-87
2022/07/06 02:15:42;;;;;;;3.03;0.70;;;;;;;26.94;39.44;99831.94;5079853;28;20032;-86
2022/07/06 02:18:10;;;;;;;3.08;1.02;;;;;;;26.90;39.71;99827.78;5084017;28;20035;-84
2022/07/06 02:20:40;;;;;;;2.00;1.00;;;;;;;26.92;39.37;99839.25;5116318;28;20476;-84
2022/07/06 02:23:10;;;;;;;1.98;0.82;;;;;;;26.90;39.45;99839.34;5079882;28;20032;-84
2022/07/06 02:25:44;;;;;;;2.67;0.75;;;;;;;26.88;39.56;99845.81;5079483;28;20024;-84
2022/07/06 02:28:18;;;;;;;1.60;0.70;;;;;;;26.86;39.60;99842.38;5098394;28;20024;-84
2022/07/06 02:30:53;;;;;;;3.35;1.30;;;;;;;26.83;39.82;99838.16;5081419;28;20051;-86
2022/07/06 02:33:36;;;;;;;2.60;0.90;;;;;;;26.83;39.49;99831.94;5079364;28;20092;-85
2022/07/06 02:36:15;;;;;;;2.88;1.10;;;;;;;26.79;39.65;99826.81;5097100;28;20350;-84
2022/07/06 02:38:55;;;;;;;1.75;0.85;;;;;;;26.79;39.66;99829.47;5097587;28;20043;-84
2022/07/06 02:41:32;;;;;;;1.70;0.70;;;;;;;26.76;39.91;99832.41;5079186;28;20173;-85
2022/07/06 02:44:05;;;;;;;3.42;1.20;;;;;;;26.77;39.84;99850.19;5097496;28;20411;-86
2022/07/06 02:46:42;;;;;;;2.08;0.95;;;;;;;26.73;39.88;99848.72;5079229;28;20032;-84
2022/07/06 02:49:15;;;;;;;5.00;0.90;;;;;;;26.72;40.12;99847.03;5080627;28;20123;-85
2022/07/06 02:51:50;;;;;;;2.55;1.00;;;;;;;26.69;39.97;99849.94;5084154;28;20099;-84
2022/07/06 02:54:48;;;;;;;1.20;0.73;;;;;;;26.66;40.21;99855.53;5112750;28;20023;-85
2022/07/06 02:57:18;;;;;;;2.28;0.90;;;;;;;26.65;40.34;99856.50;5074620;28;20046;-85
2022/07/06 02:59:49;;;;;;;2.72;1.02;;;;;;;26.62;40.50;99867.44;5083938;28;20465;-86
2022/07/06 03:02:22;;;;;;;2.03;0.93;;;;;;;26.63;40.29;99877.22;5084584;28;20055;-86
2022/07/06 03:04:50;;;;;;;2.85;0.75;;;;;;;26.61;40.24;99876.44;5083666;28;20038;-86
2022/07/06 03:07:18;;;;;;;2.28;0.95;;;;;;;26.59;40.51;99883.75;5080609;28;20481;-85
2022/07/06 03:09:44;;;;;;;2.08;0.93;;;;;;;26.58;40.61;99887.41;5079838;28;20031;-85
2022/07/06 03:12:12;;;;;;;3.47;1.05;;;;;;;26.57;40.46;99889.22;5079160;28;20190;-85
2022/07/06 03:14:41;;;;;;;3.90;1.08;;;;;;;26.57;40.73;99883.03;5079727;28;20465;-84
2022/07/06 03:17:11;;;;;;;4.25;1.10;;;;;;;26.54;40.79;99876.94;5082019;28;20396;-84
2022/07/06 03:19:39;;;;;;;2.08;0.82;;;;;;;26.54;40.77;99878.78;5079404;28;20346;-84
2022/07/06 03:22:25;;;;;;;1.98;0.93;;;;;;;26.51;40.64;99893.25;5082969;28;20023;-85
2022/07/06 03:24:54;;;;;;;3.30;1.10;;;;;;;26.52;41.15;99894.94;5080652;28;20032;-86
2022/07/06 03:27:23;;;;;;;3.65;1.10;;;;;;;26.51;41.01;99898.59;5078591;28;20073;-85
2022/07/06 03:29:53;;;;;;;2.67;1.00;;;;;;;26.49;40.89;99894.34;5078644;28;20043;-85
2022/07/06 03:32:35;;;;;;;3.55;0.80;;;;;;;26.46;40.64;99898.09;5078022;28;20065;-85
2022/07/06 03:35:06;;;;;;;2.25;0.90;;;;;;;26.47;40.79;99901.63;5078294;28;20032;-84
2022/07/06 03:37:40;;;;;;;2.90;0.88;;;;;;;26.44;40.94;99896.50;5078124;28;20090;-86
2022/07/06 03:40:12;;;;;;;3.08;1.15;;;;;;;26.43;40.94;99901.00;5078630;28;20039;-85
2022/07/06 03:42:39;;;;;;;3.63;1.02;;;;;;;26.41;40.92;99897.59;5078436;28;20024;-84
2022/07/06 03:45:15;;;;;;;2.20;0.90;;;;;;;26.41;41.18;99892.25;5078401;28;20032;-83
2022/07/06 03:47:52;;;;;;;2.50;1.05;;;;;;;26.39;40.89;99889.69;5096581;28;20028;-86
2022/07/06 03:50:27;;;;;;;4.22;1.00;;;;;;;26.38;41.19;99892.47;5098226;28;20036;-85
2022/07/06 03:52:59;;;;;;;2.80;1.00;;;;;;;26.37;41.01;99886.28;5097580;28;20024;-86
2022/07/06 03:55:29;;;;;;;2.83;1.10;;;;;;;26.35;41.14;99882.03;5083187;28;20119;-85
2022/07/06 03:58:16;;;;;;;3.17;0.77;;;;;;;26.32;41.16;99874.22;5096816;28;20028;-85
2022/07/06 04:00:44;;;;;;;2.92;1.10;;;;;;;26.33;41.35;99870.59;5096563;28;20373;-85
2022/07/06 04:03:12;;;;;;;4.30;1.00;;;;;;;26.31;41.13;99865.38;5096042;28;20020;-85
2022/07/06 04:05:41;;;;;;;4.10;1.20;;;;;;;26.31;41.40;99865.38;5080615;28;20028;-86
2022/07/06 04:08:08;;;;;;;2.15;0.93;;;;;;;26.30;41.14;99876.19;5079217;28;20057;-85
2022/07/06 04:10:45;;;;;;;2.92;1.00;;;;;;;26.29;41.45;99885.19;5078816;28;20114;-86
2022/07/06 04:13:13;;;;;;;3.40;1.15;;;;;;;26.26;41.26;99884.44;5082540;28;20424;-85
2022/07/06 04:15:43;;;;;;;3.22;1.10;;;;;;;26.26;41.38;99889.78;5082400;28;20035;-86
2022/07/06 04:18:21;;;;;;;1.92;0.90;;;;;;;26.23;41.58;99890.03;5082771;28;20040;-85
2022/07/06 04:20:57;;;;;;;2.67;1.20;;;;;;;26.20;41.56;99890.22;5084234;28;20027;-83
2022/07/06 04:23:36;;;;;;;;;;;;;;;26.22;41.21;99901.66;5083602;28;20020;-87
2022/07/06 04:26:04;;;;;;;3.15;1.00;;;;;;;26.22;41.33;99914.19;5078781;28;19985;-86
2022/07/06 04:28:35;;;;;;;2.72;0.93;;;;;;;26.21;41.59;99916.03;5081990;28;20032;-85
2022/07/06 04:31:10;;;;;;;2.45;1.10;;;;;;;26.19;41.55;99925.13;5078232;28;20089;-86
2022/07/06 04:33:42;;;;;;;1.88;1.02;;;;;;;26.17;41.69;99932.41;5096118;28;20031;-84
2022/07/06 04:36:25;;;;;;;2.50;0.88;;;;;;;26.17;41.48;99940.41;5077484;28;20046;-85
2022/07/06 04:38:50;;;;;;;3.38;1.20;;;;;;;26.15;41.49;99945.91;5077457;28;20420;-85
2022/07/06 04:44:18;;;;;;;2.53;0.98;;;;;;;26.13;41.74;99947.81;5094620;28;20477;-87
2022/07/06 04:46:49;;;;;;;4.55;1.30;;;;;;;26.13;41.49;99943.34;5077399;28;20119;-84
2022/07/06 04:49:19;;;;;;;2.65;1.00;;;;;;;26.11;41.99;99958.63;5077495;28;20453;-85
2022/07/06 04:51:53;;;;;;;2.38;1.20;;;;;;;26.10;41.71;99959.59;5075851;28;20047;-84
2022/07/06 04:54:44;;;;;;;3.35;1.02;;;;;;;26.11;41.60;99965.81;5079894;28;20047;-85
2022/07/06 04:57:29;;;;;;;3.67;0.93;;;;;;;26.11;41.93;99976.50;5077405;28;20038;-86
2022/07/06 05:00:07;;;;;;;1.00;0.68;;;;;;;26.09;41.63;99973.09;5078508;28;20036;-84
2022/07/06 05:02:35;;;;;;;2.47;1.00;;;;;;;26.09;41.55;99973.09;5095393;28;20024;-85
2022/07/06 05:05:10;;;;;;;1.95;0.90;;;;;;;26.08;41.59;99966.03;5077424;28;20031;-85
2022/07/06 05:08:04;;;;;;;2.70;0.98;;;;;;;26.09;41.65;99957.03;5077064;28;20028;-85
2022/07/06 05:10:32;;;;;;;2.72;0.90;;;;;;;26.08;41.97;99966.03;5077082;28;20043;-85
2022/07/06 05:13:08;;;;;;;4.43;0.90;;;;;;;26.11;41.95;99973.84;5095059;28;20032;-85
2022/07/06 05:15:34;;;;;;;;;;;;;;;26.09;42.08;99973.09;5078248;28;20457;-86
2022/07/06 05:18:10;;;;;;;2.37;1.07;;;;;;;26.10;42.61;99980.16;5077748;28;19965;-85
2022/07/06 05:20:47;;;;;;;4.63;1.10;;;;;;;26.10;42.26;99985.50;5077044;28;20047;-86
2022/07/06 05:23:29;;;;;;;3.22;1.10;;;;;;;26.08;42.65;100000.78;5077084;28;20028;-87
2022/07/06 05:26:04;;;;;;;1.63;0.85;;;;;;;26.08;42.65;99999.00;5095010;28;20464;-86
2022/07/06 05:28:34;;;;;;;2.67;0.95;;;;;;;26.07;42.54;100004.44;5077431;28;20035;-86
2022/07/06 05:31:14;;;;;;;3.80;1.08;;;;;;;26.06;42.67;100005.41;5081007;28;20534;-86
2022/07/06 05:33:45;;;;;;;3.42;1.20;;;;;;;26.08;43.01;100014.16;5082868;28;20032;-85
2022/07/06 05:36:13;;;;;;;3.75;1.58;;;;;;;26.06;42.85;100013.44;5114999;28;20028;-85
2022/07/06 05:38:42;;;;;;;2.65;1.15;;;;;;;26.04;43.03;100010.03;5080644;28;20032;-87
2022/07/06 05:41:11;;;;;;;4.15;1.02;;;;;;;26.01;42.82;100006.59;5082405;28;20028;-87
2022/07/06 05:43:45;;;;;;;4.25;1.30;;;;;;;26.00;43.06;100004.03;5079237;28;20525;-86
2022/07/06 05:46:13;;;;;;;4.57;1.20;;;;;;;25.99;42.99;99995.19;5077699;28;20038;-86
2022/07/06 05:51:29;;;;;;;4.30;1.23;;;;;;;25.98;43.00;100003.31;5094935;28;20365;-86
2022/07/06 05:54:19;;;;;;;5.05;1.50;;;;;;;25.95;43.25;100004.38;5077274;28;20435;-84
2022/07/06 05:57:06;;;;;;;2.55;1.05;;;;;;;25.97;42.89;100007.81;5079689;28;20465;-86
2022/07/06 05:59:42;;;;;;;3.17;1.20;;;;;;;25.97;42.97;100013.16;5080969;28;20059;-85
2022/07/06 06:02:16;;;;;;;6.45;1.40;;;;;;;25.98;43.06;100016.69;5080809;28;20027;-85
2022/07/06 06:04:48;;;;;;;3.08;1.10;;;;;;;25.98;43.04;100009.53;5101139;28;20060;-85
2022/07/06 06:07:43;;;;;;;2.65;1.20;;;;;;;25.97;42.97;100007.81;5081200;28;20039;-85
2022/07/06 06:10:12;;;;;;;2.92;1.05;;;;;;;25.98;42.90;100014.00;5080447;28;20358;-86
2022/07/06 06:12:42;;;;;;;4.75;1.40;;;;;;;25.98;43.00;100014.88;5077658;28;20044;-87
2022/07/06 06:15:22;;;;;;;4.35;1.63;;;;;;;25.95;43.09;100025.78;5078571;28;20028;-87
2022/07/06 06:17:51;;;;;;;4.68;1.50;;;;;;;25.96;43.24;100022.13;5076747;28;20028;-86
2022/07/06 06:20:49;;;;;;;4.90;1.30;;;;;;;25.94;43.19;100024.06;5076977;28;20024;-86
2022/07/06 06:23:14;;;;;;;3.55;1.08;;;;;;;25.95;43.20;100031.13;5080068;28;20029;-86
2022/07/06 06:25:59;;;;;;;4.22;1.50;;;;;;;25.93;43.33;100043.75;5078064;28;20438;-87
2022/07/06 06:28:25;;;;;;;4.20;1.50;;;;;;;25.91;43.18;100051.00;5112116;28;20060;-86
2022/07/06 06:30:51;;;;;;;3.00;1.15;;;;;;;25.90;43.15;100051.16;5080836;28;20028;-88
2022/07/06 06:33:19;;;;;;;4.75;1.35;;;;;;;25.88;43.12;100051.25;5080380;28;20028;-88
2022/07/06 06:35:47;;;;;;;6.65;1.38;;;;;;;25.86;43.13;100053.19;5081456;28;20024;-89
2022/07/06 06:38:14;;;;;;;4.63;1.25;;;;;;;25.88;43.37;100048.59;5087677;28;20059;-87
2022/07/06 06:40:41;;;;;;;3.95;1.40;;;;;;;25.87;43.39;100046.88;5090379;28;20043;-87
2022/07/06 06:43:07;;;;;;;2.83;1.27;;;;;;;25.86;43.15;100042.50;5087762;28;20035;-86
2022/07/06 06:45:33;;;;;;;5.38;1.45;;;;;;;25.87;43.35;100050.38;5084543;28;20049;-84
2022/07/06 06:47:59;;;;;;;4.53;1.20;;;;;;;25.87;43.54;100045.03;5084474;28;20374;-86
2022/07/06 06:50:26;;;;;;;4.72;1.67;;;;;;;25.86;43.21;100042.50;5084151;28;20058;-87
2022/07/06 06:52:52;;;;;;;3.60;1.40;;;;;;;25.86;43.09;100042.50;5083821;28;20039;-87
2022/07/06 06:55:18;;;;;;;3.47;1.50;;;;;;;25.86;43.01;100039.84;5081880;28;20024;-85
2022/07/06 06:57:47;;;;;;;3.95;1.20;;;;;;;25.85;43.38;100038.09;5082124;28;20085;-87
2022/07/06 07:00:15;;;;;;;3.45;1.20;;;;;;;25.88;42.91;100035.22;5081164;28;20096;-84
2022/07/06 07:02:41;;;;;;;4.50;1.45;;;;;;;25.87;43.17;100029.00;5079821;28;20020;-86
2022/07/06 07:05:07;;;;;;;4.38;1.20;;;;;;;25.85;42.77;100025.59;5080911;28;20034;-86
2022/07/06 07:07:39;;;;;;;3.65;1.15;;;;;;;25.86;42.81;100021.94;5080771;28;20030;-85
2022/07/06 07:10:06;;;;;;;4.93;1.40;;;;;;;25.87;42.94;100020.16;5115452;28;20127;-86
2022/07/06 07:12:32;;;;;;;4.63;1.33;;;;;;;25.88;43.00;100024.53;5083594;28;20051;-88
2022/07/06 07:14:59;;;;;;;2.90;1.10;;;;;;;25.86;43.27;100018.44;5079667;28;20038;-85
2022/07/06 07:17:28;;;;;;;3.17;1.42;;;;;;;25.89;43.22;100014.69;5079615;28;20028;-86
2022/07/06 07:19:56;;;;;;;3.88;1.17;;;;;;;25.87;43.19;100020.16;5081028;28;20106;-86
2022/07/06 07:22:22;;;;;;;3.58;1.10;;;;;;;25.89;43.28;100015.53;5080058;28;20350;-86
2022/07/06 07:24:48;;;;;;;3.72;1.67;;;;;;;25.89;43.36;100014.69;5078500;28;20035;-87
2022/07/06 07:27:18;;;;;;;3.05;1.30;;;;;;;25.87;43.06;100020.97;5078974;28;20050;-87
2022/07/06 07:29:44;;;;;;;5.28;1.63;;;;;;;25.90;43.46;100022.56;5079592;28;20030;-85
2022/07/06 07:32:09;;;;;;;1.85;1.38;;;;;;;25.92;43.35;100023.34;5079524;28;20036;-86
2022/07/06 07:34:35;;;;;;;4.38;1.30;;;;;;;25.94;43.27;100025.88;5079632;28;20122;-87
2022/07/06 07:37:01;;;;;;;4.20;1.40;;;;;;;25.95;43.63;100025.78;5079887;28;20023;-86
2022/07/06 07:39:26;;;;;;;4.70;1.40;;;;;;;25.96;43.29;100016.78;5080254;28;20049;-88
2022/07/06 07:41:52;;;;;;;3.60;1.30;;;;;;;25.98;43.49;100020.22;5081640;28;20047;-86
2022/07/06 07:44:18;;;;;;;3.92;1.13;;;;;;;25.96;43.37;100015.94;5085891;28;20038;-85
2022/07/06 07:46:44;;;;;;;3.33;1.05;;;;;;;25.98;43.48;100014.88;5080542;28;20036;-85
2022/07/06 07:49:09;;;;;;;3.03;1.20;;;;;;;25.99;43.56;100011.22;5078615;28;20054;-84
2022/07/06 07:51:35;;;;;;;5.63;1.40;;;;;;;26.01;43.16;100017.28;5078346;28;20055;-86
2022/07/06 07:54:01;;;;;;;2.38;1.20;;;;;;;26.02;43.25;100018.16;5078100;28;20032;-86
2022/07/06 07:56:26;;;;;;;3.60;1.27;;;;;;;26.04;43.20;100028.75;5096155;28;20110;-86
2022/07/06 07:58:52;;;;;;;4.03;1.38;;;;;;;26.03;43.34;100029.69;5078356;28;20038;-86
2022/07/06 08:01:18;;;;;;;2.17;1.00;;;;;;;26.05;43.33;100030.44;5097831;28;20408;-87
2022/07/06 08:03:43;;;;;;;3.67;1.20;;;;;;;26.06;43.39;100029.47;5082852;28;20061;-87
2022/07/06 08:06:09;;;;;;;3.22;1.10;;;;;;;26.09;43.17;100037.25;5083862;28;20028;-86
2022/07/06 08:08:35;;;;;;;5.38;1.30;;;;;;;26.07;43.31;100050.78;5082081;28;20032;-86
2022/07/06 08:11:01;;;;;;;5.18;1.50;;;;;;;26.06;43.13;100032.16;5083965;28;20131;-87
2022/07/06 08:13:26;;;;;;;3.25;1.13;;;;;;;26.08;43.00;100033.75;5101900;28;20464;-86
2022/07/06 08:15:52;;;;;;;5.53;1.35;;;;;;;26.10;43.15;100028.28;5084058;28;20126;-87
2022/07/06 08:18:18;;;;;;;5.75;1.17;;;;;;;26.09;43.24;100023.88;5080720;28;20024;-86
2022/07/06 08:20:43;;;;;;;2.97;1.38;;;;;;;26.08;43.04;100033.75;5078881;28;20055;-86
2022/07/06 08:23:09;;;;;;;3.88;1.40;;;;;;;26.07;43.04;100032.06;5078775;28;20377;-87
2022/07/06 08:25:35;;;;;;;3.22;1.20;;;;;;;26.11;43.00;100038.03;5078488;28;20035;-86
2022/07/06 08:28:01;;;;;;;2.35;0.90;;;;;;;26.10;42.68;100033.66;5096049;28;20035;-86
2022/07/06 08:30:26;;;;;;;3.72;1.08;;;;;;;26.12;42.86;100042.41;5095675;28;20115;-87
2022/07/06 08:32:52;;;;;;;3.25;1.27;;;;;;;26.13;42.93;100033.41;5078672;28;20476;-87
2022/07/06 08:35:18;;;;;;;3.45;1.10;;;;;;;26.14;42.80;100035.09;5077948;28;20028;-87
2022/07/06 08:37:44;;;;;;;2.22;1.00;;;;;;;26.14;42.70;100024.41;5078078;28;20034;-86
2022/07/06 08:40:10;;;;;;;1.95;0.90;;;;;;;26.15;42.79;100028.81;5077935;28;20065;-86
2022/07/06 08:42:36;;;;;;;2.72;1.30;;;;;;;26.14;42.78;100025.28;5078022;28;20039;-86
2022/07/06 08:45:05;;;;;;;1.83;0.95;;;;;;;26.16;42.58;100033.19;5077814;28;20489;-87
2022/07/06 08:47:31;;;;;;;2.83;0.95;;;;;;;26.17;42.84;100024.19;5079741;28;20476;-87
2022/07/06 08:49:58;;;;;;;2.97;1.20;;;;;;;26.17;42.71;100017.97;5082315;28;20032;-86
2022/07/06 08:52:24;;;;;;;2.72;1.33;;;;;;;26.17;42.85;100008.16;5084768;28;20118;-89
2022/07/06 08:54:50;;;;;;;4.30;1.27;;;;;;;26.19;42.95;100005.38;5084677;28;20034;-88
2022/07/06 08:57:17;;;;;;;3.60;1.10;;;;;;;26.16;42.48;100010.94;5081164;28;20029;-88
2022/07/06 08:59:44;;;;;;;3.45;1.40;;;;;;;26.21;42.85;100017.66;5081530;28;20024;-86
2022/07/06 09:02:10;;;;;;;3.60;1.20;;;;;;;26.21;42.84;100020.34;5083783;28;20032;-86
2022/07/06 09:04:37;;;;;;;3.65;1.20;;;;;;;26.21;42.77;100020.34;5082136;28;20089;-85
2022/07/06 09:07:03;;;;;;;2.97;1.40;;;;;;;26.24;43.08;100008.59;5081033;28;20032;-85
2022/07/06 09:09:32;;;;;;;2.28;1.08;;;;;;;26.24;43.41;100014.75;5095678;28;20035;-85
2022/07/06 09:11:58;;;;;;;3.00;1.08;;;;;;;26.26;43.22;100022.69;5077582;28;20090;-85
2022/07/06 09:14:30;;;;;;;2.72;1.30;;;;;;;26.25;43.28;100023.66;5080318;28;20117;-87
2022/07/06 09:17:07;;;;;;;4.47;1.50;;;;;;;26.27;43.35;100030.59;5080216;28;20028;-85
2022/07/06 09:19:36;;;;;;;2.78;1.20;;;;;;;26.29;43.55;100025.13;5082643;28;20024;-86
2022/07/06 09:22:05;;;;;;;2.85;1.20;;;;;;;26.31;43.69;100025.88;5083929;28;20024;-87
2022/07/06 09:24:32;;;;;;;3.45;1.30;;;;;;;26.31;43.59;100023.19;5086907;28;20430;-86
2022/07/06 09:27:00;;;;;;;4.25;1.70;;;;;;;26.33;43.38;100023.09;5097698;28;20048;-85
2022/07/06 09:29:31;;;;;;;2.72;1.20;;;;;;;26.33;43.63;100012.38;5084859;28;20024;-86
2022/07/06 09:32:01;;;;;;;3.33;1.17;;;;;;;26.36;43.43;100022.84;5088201;28;20031;-85
2022/07/06 09:34:50;;;;;;;3.90;1.63;;;;;;;26.37;43.84;100016.50;5087190;28;20028;-86
2022/07/06 09:37:17;;;;;;;4.35;1.33;;;;;;;26.37;43.70;100013.84;5082311;28;20036;-85
2022/07/06 09:39:44;;;;;;;4.80;1.60;;;;;;;26.38;43.60;99999.50;5100499;28;20358;-86
2022/07/06 09:42:11;;;;;;;2.42;1.13;;;;;;;26.40;43.67;99994.91;5101409;28;20106;-85
2022/07/06 09:44:38;;;;;;;2.40;1.15;;;;;;;26.40;43.53;99992.22;5082794;28;20327;-86
2022/07/06 09:47:15;;;;;;;3.60;1.40;;;;;;;26.43;43.70;99985.78;5087543;28;20122;-85
2022/07/06 09:50:32;;;;;;;2.75;1.17;;;;;;;26.43;43.38;99977.75;5085254;28;20052;-86
2022/07/06 09:52:58;;;;;;;2.35;1.00;;;;;;;26.44;43.38;99977.63;5105402;28;20040;-86
2022/07/06 09:55:29;;;;;;;5.03;1.27;;;;;;;26.46;43.49;99981.06;5084634;28;20036;-84
2022/07/06 09:58:12;;;;;;;4.00;1.05;;;;;;;26.46;43.46;99975.69;5099355;28;20023;-83
2022/07/06 10:00:39;;;;;;;3.00;1.20;;;;;;;26.47;43.49;99985.44;5079811;28;20035;-85
2022/07/06 10:03:09;;;;;;;3.58;1.00;;;;;;;26.49;43.58;99986.16;5098690;28;20106;-83
2022/07/06 10:06:11;;;;;;;2.22;1.00;;;;;;;26.51;43.23;99988.72;5080730;28;20106;-84
2022/07/06 10:08:40;;;;;;;4.35;1.25;;;;;;;26.51;43.38;99992.25;5080446;28;20020;-85
2022/07/06 10:11:16;;;;;;;3.60;1.13;;;;;;;26.51;43.31;99994.94;5082188;28;20406;-84
2022/07/06 10:17:17;;;;;;;;;;;;;;;26.58;43.27;99994.47;5098997;28;20042;-85
2022/07/06 10:20:22;;;;;;;6.32;1.48;;;;;;;26.58;43.35;99989.09;5131342;27;19912;-86
2022/07/06 10:22:49;;;;;;;2.65;1.25;;;;;;;26.57;43.76;99987.41;5096981;28;20024;-86
2022/07/06 10:25:19;;;;;;;3.35;1.23;;;;;;;26.60;43.44;99985.34;5097251;28;20105;-86
2022/07/06 10:27:47;;;;;;;2.33;1.20;;;;;;;26.60;43.36;99980.00;5102906;28;20046;-86
2022/07/06 10:30:18;;;;;;;3.85;1.02;;;;;;;26.64;43.43;99983.28;5102881;28;20032;-84
2022/07/06 10:32:46;;;;;;;2.38;1.17;;;;;;;26.64;43.28;99980.59;5097636;28;20062;-84
2022/07/06 10:35:14;;;;;;;4.57;1.20;;;;;;;26.66;43.30;99992.03;5096820;28;20024;-84
2022/07/06 10:37:41;;;;;;;2.95;1.10;;;;;;;26.68;43.47;99998.13;5098826;28;20465;-86
2022/07/06 10:43:35;;;;;;;3.40;1.42;;;;;;;26.74;43.23;99997.66;5104103;28;20110;-84
2022/07/06 10:46:21;;;;;;;5.45;1.50;;;;;;;26.74;43.59;99995.00;5059157;28;20043;-85
2022/07/06 10:48:49;;;;;;;2.85;1.48;;;;;;;26.77;43.48;100004.59;5085568;28;20372;-86
2022/07/06 10:51:24;;;;;;;5.05;1.60;;;;;;;26.76;43.40;99993.03;5096630;28;20035;-85
2022/07/06 10:57:17;;;;;;;4.07;1.27;;;;;;;26.85;43.67;100001.31;5098152;28;20032;-86
2022/07/06 11:00:03;;;;;;;4.38;1.58;;;;;;;26.88;43.20;100001.09;5100800;28;20024;-84
2022/07/06 11:02:38;;;;;;;2.58;1.10;;;;;;;26.90;43.22;99999.13;5101343;28;20020;-85
2022/07/06 11:05:11;;;;;;;5.13;1.33;;;;;;;26.94;43.22;99995.28;5096433;28;20024;-85
2022/07/06 11:07:49;;;;;;;2.55;1.33;;;;;;;26.94;42.84;99996.13;5098909;28;20043;-86
2022/07/06 11:10:15;;;;;;;2.42;1.30;;;;;;;26.97;42.93;99987.00;5098853;28;20024;-83
2022/07/06 11:12:44;;;;;;;2.28;1.27;;;;;;;26.97;42.97;99976.28;5132254;27;20530;-85
2022/07/06 11:15:10;;;;;;;5.80;1.48;;;;;;;27.01;42.61;99996.50;5098625;28;20030;-84
2022/07/06 11:17:36;;;;;;;4.40;1.35;;;;;;;27.02;42.52;100003.56;5102050;28;20461;-85
2022/07/06 11:20:12;;;;;;;4.78;1.65;;;;;;;27.05;42.29;99991.75;5100323;28;20047;-87
2022/07/06 11:22:38;;;;;;;6.55;1.63;;;;;;;27.07;42.23;99993.34;5101133;28;20020;-87
2022/07/06 11:25:06;;;;;;;4.03;1.50;;;;;;;27.10;41.97;99988.75;5101133;28;20012;-85
2022/07/06 11:28:14;;;;;;;3.22;1.20;;;;;;;27.14;42.03;99984.81;5096850;28;20496;-85
2022/07/06 11:30:40;;;;;;;4.70;1.40;;;;;;;27.15;41.54;99982.03;5096634;28;20118;-85
2022/07/06 11:33:47;;;;;;;4.28;1.35;;;;;;;27.16;41.52;99989.09;5102957;28;20086;-85
2022/07/06 11:36:21;;;;;;;4.18;1.38;;;;;;;27.21;41.67;99994.06;5096154;28;20119;-84
2022/07/06 11:38:49;;;;;;;6.65;1.33;;;;;;;27.24;41.61;99985.81;5096168;28;20028;-84
2022/07/06 11:41:16;;;;;;;5.68;1.27;;;;;;;27.24;41.36;99979.56;5095771;28;20097;-85
2022/07/06 11:43:45;;;;;;;3.17;1.40;;;;;;;27.23;41.54;99978.75;5098499;28;20050;-87
2022/07/06 11:46:24;;;;;;;5.90;1.30;;;;;;;27.25;41.35;99982.16;5102938;28;20031;-85
2022/07/06 11:48:52;;;;;;;2.90;1.10;;;;;;;27.25;41.68;99976.78;5102864;28;20023;-87
2022/07/06 11:51:18;;;;;;;3.10;1.10;;;;;;;27.26;41.73;99978.47;5102887;28;20028;-86
2022/07/06 11:53:54;;;;;;;3.13;1.20;;;;;;;27.28;41.88;99976.56;5100944;28;20535;-85
2022/07/06 11:56:21;;;;;;;;;;;;;;;27.31;41.54;99980.81;5097449;28;20444;-86
2022/07/06 11:58:50;;;;;;;3.28;1.20;;;;;;;27.31;41.59;99981.66;5131832;27;19942;-85
2022/07/06 12:01:17;;;;;;;3.47;1.10;;;;;;;27.33;41.39;99979.72;5098499;28;20034;-87
2022/07/06 12:03:44;;;;;;;3.17;1.20;;;;;;;27.34;41.57;99977.88;5098273;28;20012;-86
2022/07/06 12:06:30;;;;;;;3.53;1.23;;;;;;;27.33;41.32;99971.69;5106707;28;20030;-86
2022/07/06 12:08:58;;;;;;;2.47;1.10;;;;;;;27.37;41.31;99974.09;5099518;28;20119;-86
2022/07/06 12:11:30;;;;;;;1.90;0.90;;;;;;;27.40;41.46;99979.22;5105746;28;20044;-86
2022/07/06 12:14:01;;;;;;;2.30;1.00;;;;;;;27.42;41.47;99977.25;5096091;28;20024;-84
2022/07/06 12:16:34;;;;;;;2.67;1.00;;;;;;;27.44;41.31;99980.66;5094403;28;20103;-85